createdAt,value
2016-12-19T00:00:43.594Z,15.04
2016-12-19T00:01:43.581Z,15.23
2016-12-19T00:02:43.563Z,15.8
2016-12-19T00:03:43.548Z,15.89
2016-12-19T00:04:43.531Z,15.8
2016-12-19T00:05:43.832Z,15.42
2016-12-19T00:06:43.500Z,15.52
2016-12-19T00:07:43.482Z,15.42
2016-12-19T00:08:43.467Z,15.23
2016-12-19T00:09:43.453Z,14.66
2016-12-19T00:10:43.435Z,14.47
2016-12-19T00:11:43.421Z,14
2016-12-19T00:12:43.409Z,14.28
2016-12-19T00:13:43.388Z,14.47
2016-12-19T00:14:43.376Z,14.28
2016-12-19T00:15:43.360Z,14.38
2016-12-19T00:16:43.341Z,14.95
2016-12-19T00:17:43.325Z,14.76
2016-12-19T00:18:43.309Z,15.14
2016-12-19T00:19:43.294Z,15.23
2016-12-19T00:20:43.279Z,15.33
2016-12-19T00:21:43.263Z,14.76
2016-12-19T00:22:43.247Z,14.66
2016-12-19T00:23:43.234Z,15.14
2016-12-19T00:24:43.214Z,14.95
2016-12-19T00:25:43.198Z,14.76
2016-12-19T00:26:43.212Z,14.19
2016-12-19T00:27:43.482Z,13.71
2016-12-19T00:28:43.151Z,13.34
2016-12-19T00:29:43.134Z,12.96
2016-12-19T00:30:43.119Z,12.77
2016-12-19T00:31:43.104Z,13.34
2016-12-19T00:32:43.087Z,13.62
2016-12-19T00:33:43.071Z,13.81
2016-12-19T00:34:43.056Z,13.43
2016-12-19T00:35:43.041Z,12.96
2016-12-19T00:36:43.025Z,13.06
2016-12-19T00:37:43.010Z,13.43
2016-12-19T00:38:42.993Z,13.24
2016-12-19T00:39:42.977Z,12.87
2016-12-19T00:40:42.960Z,12.68
2016-12-19T00:41:42.977Z,12.77
2016-12-19T00:42:42.927Z,12.87
2016-12-19T00:43:42.913Z,12.77
2016-12-19T00:44:42.897Z,12.77
2016-12-19T00:45:42.883Z,12.77
2016-12-19T00:46:42.867Z,12.87
2016-12-19T00:47:42.850Z,12.87
2016-12-19T00:48:42.836Z,12.77
2016-12-19T00:49:42.817Z,12.58
2016-12-19T00:50:42.804Z,12.39
2016-12-19T00:51:42.786Z,12.68
2016-12-19T00:52:42.769Z,12.39
2016-12-19T00:53:42.753Z,11.82
2016-12-19T00:54:42.738Z,11.25
2016-12-19T00:55:42.722Z,11.44
2016-12-19T00:56:42.707Z,11.35
2016-12-19T00:57:42.689Z,11.73
2016-12-19T00:58:42.674Z,11.92
2016-12-19T00:59:42.657Z,12.11
2016-12-19T01:00:42.643Z,12.39
2016-12-19T01:01:42.628Z,12.77
2016-12-19T01:02:42.609Z,13.53
2016-12-19T01:03:42.596Z,14.38
2016-12-19T01:04:42.579Z,15.42
2016-12-19T01:05:42.566Z,16.08
2016-12-19T01:06:42.551Z,16.55
2016-12-19T01:07:42.532Z,16.93
2016-12-19T01:08:42.956Z,17.3
2016-12-19T01:09:42.498Z,17.58
2016-12-19T01:10:42.484Z,17.68
2016-12-19T01:11:42.930Z,18.06
2016-12-19T01:12:42.450Z,18.81
2016-12-19T01:13:42.434Z,19
2016-12-19T01:14:42.833Z,19.19
2016-12-19T01:15:42.401Z,18.62
2016-12-19T01:16:42.387Z,17.96
2016-12-19T01:17:42.371Z,17.21
2016-12-19T01:18:42.363Z,16.17
2016-12-19T01:19:42.338Z,14.75
2016-12-19T01:20:42.320Z,13.23
2016-12-19T01:21:42.307Z,12.76
2016-12-19T01:22:42.289Z,12.19
2016-12-19T01:23:42.272Z,11.06
2016-12-19T01:24:42.257Z,10.59
2016-12-19T01:25:42.242Z,10.49
2016-12-19T01:26:42.224Z,10.21
2016-12-19T01:27:42.208Z,10.3
2016-12-19T01:28:42.195Z,10.3
2016-12-19T01:29:42.175Z,10.02
2016-12-19T01:30:42.943Z,9.36
2016-12-19T01:31:42.144Z,9.27
2016-12-19T01:32:42.127Z,8.79
2016-12-19T01:33:42.552Z,8.79
2016-12-19T01:34:42.094Z,8.6
2016-12-19T01:35:42.075Z,8.41
2016-12-19T01:36:42.503Z,7.84
2016-12-19T01:37:42.045Z,7.56
2016-12-19T01:38:42.029Z,7.28
2016-12-19T01:39:42.435Z,6.99
2016-12-19T01:40:41.996Z,6.33
2016-12-19T01:41:41.980Z,6.14
2016-12-19T01:42:42.513Z,6.05
2016-12-19T01:43:41.946Z,6.43
2016-12-19T01:44:41.929Z,6.62
2016-12-19T01:45:41.911Z,6.81
2016-12-19T01:46:42.217Z,6.9
2016-12-19T01:47:41.881Z,6.43
2016-12-19T01:48:42.147Z,5.77
2016-12-19T01:49:41.845Z,5.67
2016-12-19T01:50:41.830Z,5.01
2016-12-19T01:51:41.945Z,4.82
2016-12-19T01:52:41.801Z,4.16
2016-12-19T01:53:41.782Z,3.88
2016-12-19T01:54:42.083Z,4.06
2016-12-19T01:55:41.750Z,4.16
2016-12-19T01:56:41.732Z,4.35
2016-12-19T01:57:41.717Z,4.06
2016-12-19T01:58:42.089Z,3.78
2016-12-19T01:59:41.683Z,3.78
2016-12-19T02:00:41.665Z,3.69
2016-12-19T02:01:42.101Z,3.4
2016-12-19T02:02:41.635Z,3.12
2016-12-19T02:03:41.614Z,3.31
2016-12-19T02:04:41.953Z,3.21
2016-12-19T02:05:41.583Z,3.02
2016-12-19T02:06:41.564Z,3.12
2016-12-19T02:07:41.923Z,3.31
2016-12-19T02:08:41.531Z,3.21
2016-12-19T02:09:41.516Z,3.4
2016-12-19T02:10:41.501Z,3.21
2016-12-19T02:11:41.486Z,3.21
2016-12-19T02:12:41.468Z,3.5
2016-12-19T02:13:41.450Z,3.02
2016-12-19T02:14:41.571Z,3.02
2016-12-19T02:15:41.422Z,3.12
2016-12-19T02:16:41.400Z,3.12
2016-12-19T02:17:41.508Z,2.93
2016-12-19T02:18:41.367Z,3.21
2016-12-19T02:19:41.353Z,2.93
2016-12-19T02:20:41.337Z,2.93
2016-12-19T02:21:41.316Z,2.93
2016-12-19T02:22:41.302Z,2.93
2016-12-19T02:23:41.285Z,3.31
2016-12-19T02:24:41.270Z,3.31
2016-12-19T02:25:41.250Z,2.74
2016-12-19T02:26:41.237Z,2.93
2016-12-19T02:27:41.221Z,2.93
2016-12-19T02:28:41.202Z,2.93
2016-12-19T02:29:41.188Z,3.31
2016-12-19T02:30:41.170Z,3.02
2016-12-19T02:31:41.156Z,3.12
2016-12-19T02:32:41.136Z,3.31
2016-12-19T02:33:41.122Z,3.5
2016-12-19T02:34:41.103Z,3.02
2016-12-19T02:35:41.088Z,3.12
2016-12-19T02:36:41.498Z,3.21
2016-12-19T02:37:41.058Z,3.02
2016-12-19T02:38:41.039Z,3.21
2016-12-19T02:39:41.021Z,3.12
2016-12-19T02:40:41.008Z,3.02
2016-12-19T02:41:40.991Z,3.31
2016-12-19T02:42:40.974Z,2.74
2016-12-19T02:43:40.956Z,3.4
2016-12-19T02:44:40.943Z,2.93
2016-12-19T02:45:41.323Z,2.93
2016-12-19T02:46:40.910Z,3.21
2016-12-19T02:47:40.897Z,3.4
2016-12-19T02:48:41.256Z,3.4
2016-12-19T02:49:40.859Z,3.12
2016-12-19T02:50:40.842Z,3.31
2016-12-19T02:51:41.117Z,3.21
2016-12-19T02:52:40.812Z,3.5
2016-12-19T02:53:40.799Z,3.31
2016-12-19T02:54:41.192Z,3.5
2016-12-19T02:55:40.762Z,3.69
2016-12-19T02:56:40.748Z,3.59
2016-12-19T02:57:41.101Z,3.97
2016-12-19T02:58:40.716Z,3.88
2016-12-19T02:59:40.698Z,3.88
2016-12-19T03:00:41.036Z,3.88
2016-12-19T03:01:40.666Z,4.16
2016-12-19T03:02:40.649Z,4.06
2016-12-19T03:03:41.068Z,4.06
2016-12-19T03:04:40.617Z,3.97
2016-12-19T03:05:40.599Z,4.06
2016-12-19T03:06:40.584Z,4.06
2016-12-19T03:07:41.005Z,4.82
2016-12-19T03:08:40.555Z,4.73
2016-12-19T03:09:40.540Z,4.73
2016-12-19T03:10:40.918Z,4.82
2016-12-19T03:11:40.504Z,4.73
2016-12-19T03:12:40.489Z,5.2
2016-12-19T03:13:40.633Z,5.3
2016-12-19T03:14:40.462Z,5.39
2016-12-19T03:15:40.439Z,5.49
2016-12-19T03:16:40.973Z,6.05
2016-12-19T03:17:40.405Z,6.24
2016-12-19T03:18:40.391Z,6.43
2016-12-19T03:19:40.764Z,6.52
2016-12-19T03:20:40.360Z,6.81
2016-12-19T03:21:40.344Z,6.71
2016-12-19T03:22:40.779Z,6.62
2016-12-19T03:23:40.311Z,6.52
2016-12-19T03:24:40.293Z,6.9
2016-12-19T03:25:40.664Z,6.9
2016-12-19T03:26:40.262Z,7
2016-12-19T03:27:40.247Z,6.71
2016-12-19T03:28:40.289Z,6.71
2016-12-19T03:29:40.213Z,6.43
2016-12-19T03:30:40.204Z,6.24
2016-12-19T03:31:40.182Z,6.24
2016-12-19T03:32:40.168Z,6.34
2016-12-19T03:33:40.177Z,6.81
2016-12-19T03:34:40.133Z,6.71
2016-12-19T03:35:40.118Z,6.9
2016-12-19T03:36:40.099Z,6.9
2016-12-19T03:37:40.086Z,7.28
2016-12-19T03:38:40.068Z,7.28
2016-12-19T03:39:40.053Z,7.28
2016-12-19T03:40:40.038Z,7.38
2016-12-19T03:41:40.021Z,7.28
2016-12-19T03:42:40.004Z,7.28
2016-12-19T03:43:39.985Z,7.57
2016-12-19T03:44:39.971Z,7.95
2016-12-19T03:45:40.270Z,8.61
2016-12-19T03:46:39.937Z,9.27
2016-12-19T03:47:39.924Z,9.17
2016-12-19T03:48:39.907Z,9.46
2016-12-19T03:49:39.891Z,9.84
2016-12-19T03:50:39.875Z,10.22
2016-12-19T03:51:39.856Z,10.12
2016-12-19T03:52:39.842Z,10.41
2016-12-19T03:53:39.828Z,10.41
2016-12-19T03:54:39.809Z,10.31
2016-12-19T03:55:39.792Z,10.03
2016-12-19T03:56:39.777Z,9.84
2016-12-19T03:57:39.763Z,9.93
2016-12-19T03:58:39.748Z,10.12
2016-12-19T03:59:39.731Z,10.31
2016-12-19T04:00:39.712Z,10.12
2016-12-19T04:01:39.701Z,10.31
2016-12-19T04:02:39.682Z,9.74
2016-12-19T04:03:39.664Z,9.93
2016-12-19T04:04:39.652Z,10.12
2016-12-19T04:05:39.633Z,10.5
2016-12-19T04:06:39.617Z,10.88
2016-12-19T04:07:39.602Z,11.07
2016-12-19T04:08:39.585Z,11.73
2016-12-19T04:09:39.572Z,11.63
2016-12-19T04:10:39.584Z,11.54
2016-12-19T04:11:39.536Z,12.3
2016-12-19T04:12:39.519Z,12.11
2016-12-19T04:13:39.818Z,12.01
2016-12-19T04:14:39.487Z,12.2
2016-12-19T04:15:39.470Z,12.39
2016-12-19T04:16:39.453Z,12.11
2016-12-19T04:17:39.441Z,12.2
2016-12-19T04:18:39.423Z,12.77
2016-12-19T04:19:39.407Z,13.71
2016-12-19T04:20:39.391Z,14
2016-12-19T04:21:39.377Z,13.62
2016-12-19T04:22:39.359Z,13.34
2016-12-19T04:23:39.370Z,13.9
2016-12-19T04:24:39.328Z,14.19
2016-12-19T04:25:39.311Z,14.66
2016-12-19T04:26:39.294Z,15.23
2016-12-19T04:27:39.280Z,15.52
2016-12-19T04:28:39.263Z,15.7
2016-12-19T04:29:39.247Z,15.89
2016-12-19T04:30:39.229Z,15.7
2016-12-19T04:31:39.215Z,15.8
2016-12-19T04:32:39.196Z,15.7
2016-12-19T04:33:39.181Z,16.17
2016-12-19T04:34:39.167Z,17.22
2016-12-19T04:35:39.150Z,17.31
2016-12-19T04:36:39.133Z,17.79
2016-12-19T04:37:39.120Z,17.6
2016-12-19T04:38:39.104Z,17.31
2016-12-19T04:39:39.084Z,17.5
2016-12-19T04:40:39.069Z,18.07
2016-12-19T04:41:39.052Z,18.44
2016-12-19T04:42:39.037Z,18.82
2016-12-19T04:43:39.019Z,18.54
2016-12-19T04:44:39.006Z,18.82
2016-12-19T04:45:38.991Z,18.63
2016-12-19T04:46:38.972Z,18.63
2016-12-19T04:47:38.958Z,17.97
2016-12-19T04:48:38.939Z,19.11
2016-12-19T04:49:38.926Z,19.2
2016-12-19T04:50:38.910Z,19.49
2016-12-19T04:51:38.891Z,19.68
2016-12-19T04:52:38.877Z,19.58
2016-12-19T04:53:38.861Z,19.58
2016-12-19T04:54:38.846Z,19.58
2016-12-19T04:55:38.828Z,19.49
2016-12-19T04:56:38.814Z,19.01
2016-12-19T04:57:38.796Z,19.39
2016-12-19T04:58:38.778Z,19.2
2016-12-19T04:59:38.765Z,19.87
2016-12-19T05:00:38.748Z,19.96
2016-12-19T05:01:38.733Z,19.77
2016-12-19T05:02:38.716Z,20.06
2016-12-19T05:03:38.701Z,20.9
2016-12-19T05:04:38.684Z,22.33
2016-12-19T05:05:38.665Z,22.71
2016-12-19T05:06:38.653Z,23.74
2016-12-19T05:07:38.635Z,24.88
2016-12-19T05:08:38.618Z,24.79
2016-12-19T05:09:38.600Z,25.54
2016-12-19T05:10:38.587Z,24.6
2016-12-19T05:11:38.572Z,24.98
2016-12-19T05:12:38.557Z,24.79
2016-12-19T05:13:38.544Z,24.41
2016-12-19T05:14:38.522Z,24.79
2016-12-19T05:15:38.508Z,25.07
2016-12-19T05:16:38.489Z,25.07
2016-12-19T05:17:38.473Z,24.31
2016-12-19T05:18:38.456Z,24.12
2016-12-19T05:19:38.446Z,24.03
2016-12-19T05:20:38.427Z,24.03
2016-12-19T05:21:38.411Z,24.03
2016-12-19T05:22:38.397Z,23.84
2016-12-19T05:23:38.378Z,23.08
2016-12-19T05:24:38.362Z,22.99
2016-12-19T05:25:38.347Z,22.33
2016-12-19T05:26:38.331Z,22.23
2016-12-19T05:27:38.312Z,21.47
2016-12-19T05:28:38.296Z,21.28
2016-12-19T05:29:38.280Z,21.19
2016-12-19T05:30:38.270Z,20.62
2016-12-19T05:31:38.251Z,19.96
2016-12-19T05:32:38.231Z,19.49
2016-12-19T05:33:38.219Z,19.77
2016-12-19T05:34:38.200Z,19.68
2016-12-19T05:35:38.184Z,20.15
2016-12-19T05:36:38.167Z,20.15
2016-12-19T05:37:38.154Z,20.15
2016-12-19T05:38:38.137Z,19.77
2016-12-19T05:39:38.119Z,19.77
2016-12-19T05:40:38.105Z,19.68
2016-12-19T05:41:38.088Z,19.39
2016-12-19T05:42:38.073Z,19.11
2016-12-19T05:43:38.055Z,18.92
2016-12-19T05:44:38.041Z,19.2
2016-12-19T05:45:38.026Z,19.3
2016-12-19T05:46:38.008Z,19.68
2016-12-19T05:47:37.995Z,19.2
2016-12-19T05:48:37.977Z,18.63
2016-12-19T05:49:37.961Z,18.82
2016-12-19T05:50:37.943Z,18.92
2016-12-19T05:51:37.929Z,18.35
2016-12-19T05:52:37.911Z,18.62
2016-12-19T05:53:37.899Z,18.53
2016-12-19T05:54:37.879Z,18.54
2016-12-19T05:55:37.864Z,18.82
2016-12-19T05:56:37.850Z,18.72
2016-12-19T05:57:37.834Z,18.43
2016-12-19T05:58:37.817Z,17.87
2016-12-19T05:59:37.801Z,17.87
2016-12-19T06:00:37.781Z,17.58
2016-12-19T06:01:37.767Z,17.21
2016-12-19T06:02:37.752Z,18.24
2016-12-19T06:03:37.735Z,17.77
2016-12-19T06:04:37.718Z,18.34
2016-12-19T06:05:37.702Z,18.06
2016-12-19T06:06:37.687Z,17.21
2016-12-19T06:07:37.671Z,16.74
2016-12-19T06:08:37.661Z,16.45
2016-12-19T06:09:37.638Z,16.93
2016-12-19T06:10:37.622Z,16.74
2016-12-19T06:11:37.604Z,17.49
2016-12-19T06:12:37.588Z,17.49
2016-12-19T06:13:37.573Z,17.21
2016-12-19T06:14:37.557Z,16.55
2016-12-19T06:15:37.542Z,16.45
2016-12-19T06:16:37.526Z,16.93
2016-12-19T06:17:37.509Z,17.49
2016-12-19T06:18:37.495Z,18.06
2016-12-19T06:19:37.475Z,18.06
2016-12-19T06:20:37.460Z,18.24
2016-12-19T06:21:37.444Z,18.62
2016-12-19T06:22:37.426Z,19.57
2016-12-19T06:23:37.445Z,19.48
2016-12-19T06:24:37.394Z,19.57
2016-12-19T06:25:37.381Z,19.1
2016-12-19T06:26:37.363Z,18.72
2016-12-19T06:27:37.345Z,18.06
2016-12-19T06:28:37.327Z,16.36
2016-12-19T06:29:37.314Z,14.75
2016-12-19T06:30:37.298Z,14.28
2016-12-19T06:31:37.281Z,14.36
2016-12-19T06:32:37.267Z,14.28
2016-12-19T06:33:37.247Z,14.56
2016-12-19T06:34:37.234Z,14.18
2016-12-19T06:35:37.216Z,13.32
2016-12-19T06:36:37.199Z,13.14
2016-12-19T06:37:37.184Z,12.85
2016-12-19T06:38:37.165Z,12.76
2016-12-19T06:39:37.148Z,12.57
2016-12-19T06:40:37.139Z,12
2016-12-19T06:41:37.119Z,11.72
2016-12-19T06:42:37.101Z,11.06
2016-12-19T06:43:37.083Z,11.24
2016-12-19T06:44:37.068Z,10.39
2016-12-19T06:45:37.052Z,10.11
2016-12-19T06:46:37.035Z,9.55
2016-12-19T06:47:37.015Z,9.45
2016-12-19T06:48:37.000Z,9.17
2016-12-19T06:49:36.986Z,8.89
2016-12-19T06:50:36.974Z,8.6
2016-12-19T06:51:36.955Z,8.6
2016-12-19T06:52:36.937Z,8.7
2016-12-19T06:53:36.926Z,8.7
2016-12-19T06:54:36.902Z,8.6
2016-12-19T06:55:36.883Z,9.17
2016-12-19T06:56:36.871Z,9.27
2016-12-19T06:57:36.854Z,9.55
2016-12-19T06:58:36.836Z,9.45
2016-12-19T06:59:36.828Z,9.64
2016-12-19T07:00:36.801Z,10.02
2016-12-19T07:01:36.788Z,10.49
2016-12-19T07:02:36.769Z,10.87
2016-12-19T07:03:36.758Z,10.87
2016-12-19T07:04:36.738Z,11.25
2016-12-19T07:05:36.721Z,12.1
2016-12-19T07:06:36.704Z,12.66
2016-12-19T07:07:36.687Z,13.99
2016-12-19T07:08:36.673Z,14.28
2016-12-19T07:09:36.656Z,14.37
2016-12-19T07:10:36.638Z,14.28
2016-12-19T07:11:36.623Z,14.28
2016-12-19T07:12:36.636Z,14.37
2016-12-19T07:13:36.590Z,15.41
2016-12-19T07:14:36.584Z,16.07
2016-12-19T07:15:36.557Z,16.74
2016-12-19T07:16:36.539Z,17.3
2016-12-19T07:17:36.525Z,17.1
2016-12-19T07:18:36.505Z,17.21
2016-12-19T07:19:36.489Z,17.96
2016-12-19T07:20:36.473Z,18.8
2016-12-19T07:21:36.456Z,19.18
2016-12-19T07:22:36.441Z,18.62
2016-12-19T07:23:36.424Z,18.71
2016-12-19T07:24:36.408Z,18.8
2016-12-19T07:25:36.425Z,18.05
2016-12-19T07:26:36.375Z,17.39
2016-12-19T07:27:36.358Z,16.16
2016-12-19T07:28:36.341Z,15.97
2016-12-19T07:29:36.323Z,15.88
2016-12-19T07:30:36.306Z,14.84
2016-12-19T07:31:36.292Z,13.79
2016-12-19T07:32:36.275Z,13.51
2016-12-19T07:33:36.260Z,13.23
2016-12-19T07:34:36.241Z,13.42
2016-12-19T07:35:36.225Z,13.23
2016-12-19T07:36:36.209Z,12.76
2016-12-19T07:37:36.194Z,13.04
2016-12-19T07:38:36.182Z,12.85
2016-12-19T07:39:36.156Z,12.95
2016-12-19T07:40:36.140Z,12.76
2016-12-19T07:41:36.124Z,12.57
2016-12-19T07:42:36.109Z,12.38
2016-12-19T07:43:36.093Z,12.38
2016-12-19T07:44:36.076Z,12.76
2016-12-19T07:45:36.061Z,13.04
2016-12-19T07:46:36.041Z,13.04
2016-12-19T07:47:36.026Z,13.32
2016-12-19T07:48:36.012Z,12.85
2016-12-19T07:49:35.992Z,12.66
2016-12-19T07:50:35.977Z,12.48
2016-12-19T07:51:35.958Z,12.48
2016-12-19T07:52:35.942Z,12.57
2016-12-19T07:53:35.957Z,12.1
2016-12-19T07:54:35.909Z,12.1
2016-12-19T07:55:35.896Z,12.19
2016-12-19T07:56:35.877Z,11.63
2016-12-19T07:57:35.863Z,11.06
2016-12-19T07:58:35.846Z,10.4
2016-12-19T07:59:35.825Z,10.21
2016-12-19T08:00:35.809Z,10.3
2016-12-19T08:01:35.792Z,9.83
2016-12-19T08:02:35.779Z,9.83
2016-12-19T08:03:35.760Z,10.11
2016-12-19T08:04:35.746Z,11.06
2016-12-19T08:05:35.731Z,11.06
2016-12-19T08:06:35.711Z,11.54
2016-12-19T08:07:35.695Z,11.44
2016-12-19T08:08:35.674Z,11.63
2016-12-19T08:09:35.660Z,12.01
2016-12-19T08:10:35.646Z,12.01
2016-12-19T08:11:35.627Z,12.01
2016-12-19T08:12:35.614Z,12.29
2016-12-19T08:13:35.596Z,12.29
2016-12-19T08:14:35.580Z,12.38
2016-12-19T08:15:35.563Z,13.62
2016-12-19T08:16:35.545Z,15.23
2016-12-19T08:17:35.539Z,16.74
2016-12-19T08:18:35.513Z,19.49
2016-12-19T08:19:35.498Z,20.81
2016-12-19T08:20:35.481Z,21.38
2016-12-19T08:21:35.467Z,22.33
2016-12-19T08:22:35.450Z,23.08
2016-12-19T08:23:35.433Z,23.84
2016-12-19T08:24:35.415Z,24.98
2016-12-19T08:25:35.402Z,26.87
2016-12-19T08:26:35.386Z,27.25
2016-12-19T08:27:35.370Z,27.15
2016-12-19T08:28:35.353Z,28.38
2016-12-19T08:29:35.338Z,29.04
2016-12-19T08:30:35.320Z,29.99
2016-12-19T08:31:35.306Z,31.41
2016-12-19T08:32:35.290Z,31.69
2016-12-19T08:33:35.271Z,32.64
2016-12-19T08:34:35.258Z,32.92
2016-12-19T08:35:35.244Z,34.15
2016-12-19T08:36:35.226Z,35.95
2016-12-19T08:37:35.212Z,36.33
2016-12-19T08:38:35.193Z,36.71
2016-12-19T08:39:35.182Z,36.9
2016-12-19T08:40:35.163Z,36.99
2016-12-19T08:41:35.146Z,37.93
2016-12-19T08:42:35.131Z,39.92
2016-12-19T08:43:35.116Z,41.44
2016-12-19T08:44:35.135Z,42.47
2016-12-19T08:45:35.084Z,42.85
2016-12-19T08:46:35.067Z,42.57
2016-12-19T08:47:35.050Z,41.72
2016-12-19T08:48:35.038Z,42.19
2016-12-19T08:49:35.031Z,43.8
2016-12-19T08:50:35.006Z,44.37
2016-12-19T08:51:34.990Z,45.98
2016-12-19T08:52:34.976Z,48.63
2016-12-19T08:53:34.958Z,51.56
2016-12-19T08:54:34.941Z,52.69
2016-12-19T08:55:34.928Z,55.72
2016-12-19T08:56:34.907Z,56.1
2016-12-19T08:57:34.894Z,55.15
2016-12-19T08:58:34.876Z,54.02
2016-12-19T08:59:34.863Z,54.68
2016-12-19T09:00:34.845Z,54.68
2016-12-19T09:01:34.831Z,54.77
2016-12-19T09:02:34.817Z,57.14
2016-12-19T09:03:34.797Z,58.37
2016-12-19T09:04:34.782Z,57.42
2016-12-19T09:05:34.768Z,57.42
2016-12-19T09:06:34.752Z,57.71
2016-12-19T09:07:34.745Z,58.56
2016-12-19T09:08:34.722Z,58.84
2016-12-19T09:09:34.704Z,59.03
2016-12-19T09:10:34.692Z,58.75
2016-12-19T09:11:34.706Z,58.37
2016-12-19T09:12:34.658Z,58.37
2016-12-19T09:13:34.645Z,60.45
2016-12-19T09:14:34.629Z,63.2
2016-12-19T09:15:34.610Z,63.95
2016-12-19T09:16:34.595Z,65.66
2016-12-19T09:17:34.579Z,66.13
2016-12-19T09:18:34.566Z,65.66
2016-12-19T09:19:34.547Z,66.31
2016-12-19T09:20:34.531Z,66.22
2016-12-19T09:21:34.517Z,65.94
2016-12-19T09:22:34.500Z,65.56
2016-12-19T09:23:34.485Z,66.6
2016-12-19T09:24:34.471Z,66.79
2016-12-19T09:25:34.454Z,65.84
2016-12-19T09:26:34.438Z,65.28
2016-12-19T09:27:34.426Z,65.84
2016-12-19T09:28:34.409Z,65.37
2016-12-19T09:29:34.393Z,64.42
2016-12-19T09:30:34.375Z,65.28
2016-12-19T09:31:34.362Z,66.31
2016-12-19T09:32:34.347Z,65.18
2016-12-19T09:33:34.331Z,64.8
2016-12-19T09:34:34.313Z,64.42
2016-12-19T09:35:34.299Z,64.52
2016-12-19T09:36:34.283Z,64.8
2016-12-19T09:37:34.271Z,66.13
2016-12-19T09:38:34.250Z,64.9
2016-12-19T09:39:34.552Z,63.85
2016-12-19T09:40:34.219Z,62.72
2016-12-19T09:41:34.204Z,60.64
2016-12-19T09:42:34.191Z,60.83
2016-12-19T09:43:34.181Z,59.69
2016-12-19T09:44:34.161Z,59.5
2016-12-19T09:45:34.143Z,58.75
2016-12-19T09:46:34.132Z,58.53
2016-12-19T09:47:34.110Z,58.47
2016-12-19T09:48:34.093Z,57.49
2016-12-19T09:49:34.081Z,55.82
2016-12-19T09:50:34.064Z,55.22
2016-12-19T09:51:34.048Z,54.55
2016-12-19T09:52:34.029Z,53.42
2016-12-19T09:53:34.015Z,53.42
2016-12-19T09:54:33.997Z,53.74
2016-12-19T09:55:33.982Z,53.23
2016-12-19T09:56:34.295Z,53.74
2016-12-19T09:57:33.957Z,55.12
2016-12-19T09:58:33.935Z,56.1
2016-12-19T09:59:33.919Z,55.91
2016-12-19T10:00:33.937Z,56.26
2016-12-19T10:01:33.889Z,55.5
2016-12-19T10:02:33.869Z,54.55
2016-12-19T10:03:33.856Z,55.63
2016-12-19T10:04:33.840Z,54.65
2016-12-19T10:05:33.825Z,55.22
2016-12-19T10:06:33.805Z,53.7
2016-12-19T10:07:33.790Z,52.86
2016-12-19T10:08:33.778Z,52.67
2016-12-19T10:09:33.760Z,52.95
2016-12-19T10:10:33.743Z,50.87
2016-12-19T10:11:33.728Z,50.3
2016-12-19T10:12:33.711Z,49.54
2016-12-19T10:13:33.693Z,48.13
2016-12-19T10:14:33.680Z,47.37
2016-12-19T10:15:33.695Z,46.52
2016-12-19T10:16:33.648Z,46.42
2016-12-19T10:17:33.630Z,47.47
2016-12-19T10:18:33.615Z,46.99
2016-12-19T10:19:33.599Z,47.28
2016-12-19T10:20:33.585Z,47.18
2016-12-19T10:21:33.568Z,47.28
2016-12-19T10:22:34.299Z,47.3
2016-12-19T10:23:33.534Z,48.63
2016-12-19T10:24:33.519Z,49.73
2016-12-19T10:25:33.503Z,50.04
2016-12-19T10:26:33.490Z,51.28
2016-12-19T10:27:33.471Z,52.88
2016-12-19T10:28:33.454Z,53.45
2016-12-19T10:29:33.439Z,54.87
2016-12-19T10:30:33.424Z,55.91
2016-12-19T10:31:33.408Z,56.38
2016-12-19T10:32:33.390Z,57.04
2016-12-19T10:33:33.375Z,58.18
2016-12-19T10:34:33.364Z,57.71
2016-12-19T10:35:33.340Z,55.91
2016-12-19T10:36:33.331Z,54.58
2016-12-19T10:37:33.313Z,53.17
2016-12-19T10:38:33.294Z,52.22
2016-12-19T10:39:33.280Z,50.9
2016-12-19T10:40:33.263Z,51.28
2016-12-19T10:41:33.249Z,52.79
2016-12-19T10:42:33.235Z,54.87
2016-12-19T10:43:33.218Z,57.33
2016-12-19T10:44:33.200Z,58.94
2016-12-19T10:45:33.184Z,59.5
2016-12-19T10:46:33.169Z,60.45
2016-12-19T10:47:33.156Z,60.45
2016-12-19T10:48:33.142Z,60.83
2016-12-19T10:49:33.121Z,61.4
2016-12-19T10:50:33.106Z,59.69
2016-12-19T10:51:33.090Z,57.71
2016-12-19T10:52:33.074Z,56.57
2016-12-19T10:53:33.058Z,56.95
2016-12-19T10:54:33.040Z,56.29
2016-12-19T10:55:33.025Z,55.06
2016-12-19T10:56:33.017Z,54.68
2016-12-19T10:57:32.994Z,57.04
2016-12-19T10:58:32.980Z,57.52
2016-12-19T10:59:32.969Z,56.67
2016-12-19T11:00:32.948Z,57.14
2016-12-19T11:01:32.936Z,57.14
2016-12-19T11:02:33.250Z,57.52
2016-12-19T11:03:32.901Z,57.45
2016-12-19T11:04:32.886Z,59.34
2016-12-19T11:05:32.869Z,62.37
2016-12-19T11:06:32.854Z,64.07
2016-12-19T11:07:33.153Z,65.21
2016-12-19T11:08:32.823Z,66.25
2016-12-19T11:09:32.808Z,64.64
2016-12-19T11:10:32.791Z,65.59
2016-12-19T11:11:32.777Z,66.82
2016-12-19T11:12:32.762Z,68.05
2016-12-19T11:13:32.745Z,68.62
2016-12-19T11:14:32.737Z,68.81
2016-12-19T11:15:32.717Z,68.43
2016-12-19T11:16:32.701Z,68.9
2016-12-19T11:17:32.684Z,69.76
2016-12-19T11:18:32.673Z,71.08
2016-12-19T11:19:32.655Z,72.41
2016-12-19T11:20:32.640Z,74.58
2016-12-19T11:21:32.625Z,75.81
2016-12-19T11:22:32.610Z,75.66
2016-12-19T11:23:32.593Z,80.77
2016-12-19T11:24:32.579Z,83.81
2016-12-19T11:25:32.563Z,87.4
2016-12-19T11:26:32.548Z,89.39
2016-12-19T11:27:32.534Z,89.77
2016-12-19T11:28:32.523Z,89.87
2016-12-19T11:29:32.529Z,90.53
2016-12-19T11:30:32.489Z,91
2016-12-19T11:31:32.477Z,91.57
2016-12-19T11:32:32.461Z,91.29
2016-12-19T11:33:32.447Z,90.25
2016-12-19T11:34:32.479Z,91
2016-12-19T11:35:32.416Z,93.18
2016-12-19T11:36:32.719Z,93.65
2016-12-19T11:37:32.387Z,93.94
2016-12-19T11:38:32.372Z,94.6
2016-12-19T11:39:32.359Z,95.21
2016-12-19T11:40:32.344Z,97.11
2016-12-19T11:41:32.327Z,96.54
2016-12-19T11:42:32.313Z,94.65
2016-12-19T11:43:32.297Z,93.7
2016-12-19T11:44:32.285Z,94.74
2016-12-19T11:45:32.269Z,95.4
2016-12-19T11:46:32.256Z,95.88
2016-12-19T11:47:32.240Z,94.65
2016-12-19T11:48:32.221Z,92.57
2016-12-19T11:49:32.210Z,94.56
2016-12-19T11:50:32.195Z,96.45
2016-12-19T11:51:32.182Z,98.25
2016-12-19T11:52:32.164Z,97.11
2016-12-19T11:53:32.154Z,92.1
2016-12-19T11:54:32.134Z,89.92
2016-12-19T11:55:32.121Z,90.77
2016-12-19T11:56:32.105Z,91.91
2016-12-19T11:57:32.091Z,94.08
2016-12-19T11:58:32.077Z,96.35
2016-12-19T11:59:32.058Z,94.93
2016-12-19T12:00:32.043Z,94.56
2016-12-19T12:01:32.030Z,92.9
2016-12-19T12:02:32.013Z,90.53
2016-12-19T12:03:32.001Z,91.05
2016-12-19T12:04:31.986Z,92.57
2016-12-19T12:05:31.996Z,93.85
2016-12-19T12:06:31.952Z,92.33
2016-12-19T12:07:31.938Z,90.06
2016-12-19T12:08:31.926Z,89.5
2016-12-19T12:09:31.909Z,89.59
2016-12-19T12:10:31.914Z,88.55
2016-12-19T12:11:31.877Z,87.79
2016-12-19T12:12:31.862Z,87.41
2016-12-19T12:13:31.845Z,86.66
2016-12-19T12:14:31.832Z,85.8
2016-12-19T12:15:31.816Z,85.9
2016-12-19T12:16:31.801Z,85.05
2016-12-19T12:17:31.784Z,84.39
2016-12-19T12:18:31.768Z,84.67
2016-12-19T12:19:31.753Z,83.53
2016-12-19T12:20:31.737Z,81.55
2016-12-19T12:21:31.724Z,79.09
2016-12-19T12:22:31.711Z,78.23
2016-12-19T12:23:31.691Z,77.39
2016-12-19T12:24:31.678Z,75.78
2016-12-19T12:25:31.660Z,75.21
2016-12-19T12:26:31.651Z,75.4
2016-12-19T12:27:31.633Z,75.12
2016-12-19T12:28:31.615Z,74.64
2016-12-19T12:29:31.634Z,73.98
2016-12-19T12:30:31.584Z,72.37
2016-12-19T12:31:31.569Z,73.03
2016-12-19T12:32:31.553Z,72.75
2016-12-19T12:33:31.537Z,72.56
2016-12-19T12:34:31.521Z,71.99
2016-12-19T12:35:31.505Z,71.52
2016-12-19T12:36:31.494Z,70.95
2016-12-19T12:37:31.474Z,71.14
2016-12-19T12:38:31.458Z,71.52
2016-12-19T12:39:31.442Z,72.75
2016-12-19T12:40:31.454Z,72.28
2016-12-19T12:41:31.413Z,71.71
2016-12-19T12:42:31.393Z,72.37
2016-12-19T12:43:31.377Z,74.45
2016-12-19T12:44:31.361Z,74.36
2016-12-19T12:45:31.347Z,74.17
2016-12-19T12:46:31.333Z,73.22
2016-12-19T12:47:31.316Z,77.29
2016-12-19T12:48:31.303Z,80.13
2016-12-19T12:49:31.282Z,79.47
2016-12-19T12:50:31.268Z,79.09
2016-12-19T12:51:31.256Z,78.99
2016-12-19T12:52:31.237Z,76.63
2016-12-19T12:53:31.220Z,75.59
2016-12-19T12:54:31.205Z,75.78
2016-12-19T12:55:31.189Z,75.59
2016-12-19T12:56:31.172Z,75.96
2016-12-19T12:57:31.157Z,74.45
2016-12-19T12:58:31.140Z,73.98
2016-12-19T12:59:31.128Z,73.98
2016-12-19T13:00:31.111Z,74.74
2016-12-19T13:01:31.094Z,76.44